createdAt,value
2023-01-17T00:01:46.766Z,1.40
2023-01-17T00:06:07.531Z,1.70
2023-01-17T00:10:12.675Z,1.80
2023-01-17T00:14:14.698Z,1.45
2023-01-17T00:18:17.624Z,1.52
2023-01-17T00:22:43.902Z,1.52
2023-01-17T00:27:04.550Z,1.10
2023-01-17T00:31:09.094Z,1.30
2023-01-17T00:35:11.138Z,1.70
2023-01-17T00:39:13.121Z,1.40
2023-01-17T00:43:37.032Z,1.30
2023-01-17T00:47:57.557Z,1.38
2023-01-17T00:52:18.297Z,1.38
2023-01-17T00:56:38.991Z,1.20
2023-01-17T01:00:59.927Z,1.48
2023-01-17T01:05:21.175Z,1.23
2023-01-17T01:09:41.934Z,1.30
2023-01-17T01:14:02.592Z,1.30
2023-01-17T01:18:27.676Z,1.35
2023-01-17T01:22:48.287Z,1.40
2023-01-17T01:27:08.740Z,1.00
2023-01-17T01:31:29.325Z,1.20
2023-01-17T01:35:31.393Z,0.98
2023-01-17T01:39:33.401Z,1.00
2023-01-17T01:43:54.071Z,1.20
2023-01-17T01:48:22.178Z,0.90
2023-01-17T01:52:28.032Z,0.85
2023-01-17T01:56:31.646Z,0.82
2023-01-17T02:00:36.283Z,0.80
2023-01-17T02:04:38.873Z,0.90
2023-01-17T02:08:41.404Z,1.08
2023-01-17T02:12:45.103Z,0.88
2023-01-17T02:17:20.980Z,1.35
2023-01-17T02:21:27.066Z,0.90
2023-01-17T02:25:58.878Z,1.10
2023-01-17T02:30:26.288Z,1.05
2023-01-17T02:34:30.351Z,1.00
2023-01-17T02:38:52.896Z,0.85
2023-01-17T02:43:06.419Z,1.02
2023-01-17T02:47:27.965Z,0.90
2023-01-17T02:52:07.204Z,1.00
2023-01-17T02:56:17.663Z,1.00
2023-01-17T03:00:36.852Z,0.90
2023-01-17T03:04:49.146Z,0.93
2023-01-17T03:08:53.097Z,0.90
2023-01-17T03:12:58.365Z,1.00
2023-01-17T03:17:00.399Z,0.95
2023-01-17T03:21:02.383Z,1.02
2023-01-17T03:25:05.097Z,0.70
2023-01-17T03:29:07.143Z,0.82
2023-01-17T03:33:09.178Z,0.80
2023-01-17T03:37:12.324Z,0.73
2023-01-17T03:41:14.293Z,0.90
2023-01-17T03:45:16.677Z,0.65
2023-01-17T03:49:18.727Z,0.70
2023-01-17T03:53:20.713Z,0.88
2023-01-17T03:57:22.773Z,0.55
2023-01-17T04:01:25.590Z,0.80
2023-01-17T04:05:27.726Z,0.60
2023-01-17T04:09:33.938Z,0.55
2023-01-17T04:13:35.948Z,0.77
2023-01-17T04:17:37.983Z,0.77
2023-01-17T04:21:39.988Z,0.50
2023-01-17T04:25:42.301Z,0.80
2023-01-17T04:29:46.597Z,0.70
2023-01-17T04:33:48.810Z,0.65
2023-01-17T04:37:51.791Z,0.73
2023-01-17T04:41:53.841Z,0.80
2023-01-17T04:45:57.087Z,0.70
2023-01-17T04:49:59.115Z,0.88
2023-01-17T04:54:01.122Z,0.70
2023-01-17T04:58:03.254Z,0.82
2023-01-17T05:02:05.328Z,1.00
2023-01-17T05:06:07.423Z,1.38
2023-01-17T05:10:10.265Z,0.90
2023-01-17T05:14:12.235Z,0.90
2023-01-17T05:18:16.960Z,0.90
2023-01-17T05:22:18.967Z,1.20
2023-01-17T05:26:20.968Z,0.90
2023-01-17T05:30:23.321Z,0.80
2023-01-17T05:34:25.404Z,1.00
2023-01-17T05:38:27.398Z,1.15
2023-01-17T05:42:29.402Z,1.00
2023-01-17T05:46:31.481Z,1.00
2023-01-17T05:50:36.520Z,1.20
2023-01-17T05:54:38.545Z,1.00
2023-01-17T05:58:40.563Z,1.40
2023-01-17T06:02:43.154Z,1.30
2023-01-17T06:06:45.174Z,1.02
2023-01-17T06:10:47.165Z,1.70
2023-01-17T06:14:49.224Z,3.65
2023-01-17T06:18:51.188Z,2.20
2023-01-17T06:22:55.204Z,1.80
2023-01-17T06:26:57.776Z,1.40
2023-01-17T06:30:59.915Z,1.45
2023-01-17T06:35:01.971Z,1.45
2023-01-17T06:39:05.081Z,1.20
2023-01-17T06:43:07.213Z,1.20
2023-01-17T06:47:09.250Z,2.40
2023-01-17T06:51:11.631Z,2.47
2023-01-17T06:55:13.691Z,2.83
2023-01-17T06:59:15.683Z,2.20
2023-01-17T07:03:20.603Z,3.53
2023-01-17T07:07:22.668Z,4.70
2023-01-17T07:11:24.895Z,2.00
2023-01-17T07:15:27.047Z,2.78
2023-01-17T07:19:29.623Z,2.10
2023-01-17T07:23:31.610Z,2.40
2023-01-17T07:27:33.698Z,3.40
2023-01-17T07:31:38.104Z,2.40
2023-01-17T07:35:40.133Z,2.00
2023-01-17T07:39:42.413Z,1.65
2023-01-17T07:43:44.459Z,1.90
2023-01-17T07:47:47.068Z,1.77
2023-01-17T07:51:49.122Z,1.70
2023-01-17T07:55:51.409Z,1.60
2023-01-17T07:59:53.478Z,1.70
2023-01-17T08:03:55.518Z,1.70
2023-01-17T08:07:57.528Z,1.88
2023-01-17T08:11:59.539Z,1.90
2023-01-17T08:16:04.463Z,1.50
2023-01-17T08:20:06.754Z,1.50
2023-01-17T08:24:13.595Z,2.20
2023-01-17T08:28:15.945Z,1.90
2023-01-17T08:32:18.009Z,1.63
2023-01-17T08:36:20.182Z,2.70
2023-01-17T08:40:23.360Z,3.58
2023-01-17T08:44:25.449Z,1.88
2023-01-17T08:48:27.455Z,1.70
2023-01-17T08:52:29.503Z,2.03
2023-01-17T08:56:31.528Z,8.20
2023-01-17T09:00:34.282Z,1.83
2023-01-17T09:04:36.373Z,1.75
2023-01-17T09:08:38.921Z,1.30
2023-01-17T09:12:40.947Z,1.50
2023-01-17T09:16:42.959Z,1.20
2023-01-17T09:20:44.991Z,1.17
2023-01-17T09:24:47.018Z,1.38
2023-01-17T09:28:49.476Z,1.25
2023-01-17T09:32:53.151Z,1.30
2023-01-17T09:36:56.857Z,1.70
2023-01-17T09:40:58.958Z,1.67
2023-01-17T09:45:01.167Z,1.25
2023-01-17T09:49:08.514Z,2.90
2023-01-17T09:53:16.048Z,1.10
2023-01-17T09:57:38.305Z,0.98
2023-01-17T10:01:58.784Z,1.13
2023-01-17T10:06:38.615Z,2.15
2023-01-17T10:10:43.243Z,0.80
2023-01-17T10:15:02.994Z,1.20
2023-01-17T10:19:33.162Z,0.82
2023-01-17T10:23:55.648Z,1.10
2023-01-17T10:28:00.108Z,1.77
2023-01-17T10:32:03.201Z,1.70
2023-01-17T10:36:15.319Z,1.70
2023-01-17T10:40:44.296Z,0.88
2023-01-17T10:44:59.369Z,1.05
2023-01-17T10:49:03.594Z,0.90
2023-01-17T10:53:31.502Z,0.88
2023-01-17T10:57:42.877Z,0.85
2023-01-17T11:01:45.482Z,1.08
2023-01-17T11:06:16.101Z,1.10
2023-01-17T11:10:40.173Z,0.80
2023-01-17T11:14:54.208Z,1.00
2023-01-17T11:19:15.130Z,0.82
2023-01-17T11:23:22.335Z,1.13
2023-01-17T11:31:27.283Z,0.85
2023-01-17T11:35:30.954Z,0.90
2023-01-17T11:39:33.012Z,0.82
2023-01-17T11:43:53.159Z,1.30
2023-01-17T11:48:04.827Z,1.88
2023-01-17T11:52:11.570Z,1.00
2023-01-17T11:56:35.761Z,0.80
2023-01-17T12:00:45.874Z,0.82
2023-01-17T12:05:00.550Z,1.00
2023-01-17T12:09:24.783Z,1.30
2023-01-17T12:14:01.199Z,5.50
2023-01-17T12:18:30.709Z,1.00
2023-01-17T12:22:56.382Z,0.80
2023-01-17T12:27:38.150Z,0.50
2023-01-17T12:31:56.537Z,1.23
2023-01-17T12:36:02.975Z,1.90
2023-01-17T12:40:42.725Z,1.48
2023-01-17T12:45:09.658Z,1.30
2023-01-17T12:49:26.935Z,0.90
2023-01-17T12:53:38.123Z,1.25
2023-01-17T12:57:45.432Z,1.20
2023-01-17T13:01:58.052Z,0.93
2023-01-17T13:06:03.224Z,1.05
2023-01-17T13:10:26.439Z,0.60
2023-01-17T13:14:28.731Z,0.80
2023-01-17T13:18:33.199Z,0.82
2023-01-17T13:22:39.244Z,1.10
2023-01-17T13:26:50.364Z,1.10
2023-01-17T13:31:10.586Z,1.55
2023-01-17T13:35:35.907Z,1.60
2023-01-17T13:39:51.655Z,1.85
2023-01-17T13:44:12.763Z,1.77
2023-01-17T13:48:18.619Z,2.10
2023-01-17T13:52:20.578Z,2.15
2023-01-17T13:56:22.508Z,1.80
2023-01-17T14:00:27.504Z,2.60
2023-01-17T14:05:07.973Z,2.60
2023-01-17T14:09:31.091Z,2.88
2023-01-17T14:13:39.907Z,2.20
2023-01-17T14:17:50.822Z,1.92
2023-01-17T14:22:15.102Z,1.20
2023-01-17T14:26:21.859Z,1.02
2023-01-17T14:30:33.644Z,1.00
2023-01-17T14:34:36.525Z,1.25
2023-01-17T14:38:42.776Z,1.30
2023-01-17T14:42:47.074Z,1.33
2023-01-17T14:46:49.258Z,1.35
2023-01-17T14:50:54.171Z,1.30
2023-01-17T14:54:56.195Z,1.55
2023-01-17T14:59:21.025Z,1.33
2023-01-17T15:03:23.177Z,4.28
2023-01-17T15:07:27.237Z,4.15
2023-01-17T15:11:33.561Z,1.90
2023-01-17T15:15:39.490Z,1.97
2023-01-17T15:19:47.819Z,1.90
2023-01-17T15:23:55.225Z,2.30
2023-01-17T15:27:57.654Z,2.38
2023-01-17T15:32:05.623Z,4.75
2023-01-17T15:36:13.316Z,9.57
2023-01-17T15:40:24.315Z,10.02
2023-01-17T15:44:48.083Z,4.80
2023-01-17T15:48:51.764Z,18.65
2023-01-17T15:53:02.939Z,43.78
2023-01-17T15:57:23.349Z,28.25
2023-01-17T16:01:28.462Z,53.47
2023-01-17T16:05:33.914Z,21.45
2023-01-17T16:09:43.801Z,7.75
2023-01-17T16:13:47.325Z,2.53
2023-01-17T16:18:11.160Z,2.22
2023-01-17T16:22:13.316Z,2.40
2023-01-17T16:26:15.858Z,2.45
2023-01-17T16:30:19.862Z,2.50
2023-01-17T16:34:23.851Z,3.17
2023-01-17T16:38:26.088Z,4.45
2023-01-17T16:42:28.691Z,4.38
2023-01-17T16:46:30.920Z,4.60
2023-01-17T16:50:33.131Z,5.80
2023-01-17T16:54:35.226Z,6.43
2023-01-17T16:58:37.499Z,5.97
2023-01-17T17:02:40.646Z,9.52
2023-01-17T17:06:42.854Z,20.75
2023-01-17T17:10:44.879Z,16.00
2023-01-17T17:14:46.952Z,6.03
2023-01-17T17:18:57.905Z,10.63
2023-01-17T17:22:59.977Z,9.05
2023-01-17T17:27:02.025Z,7.68
2023-01-17T17:31:06.893Z,6.45
2023-01-17T17:35:09.300Z,5.25
2023-01-17T17:39:14.767Z,7.68
2023-01-17T17:43:16.903Z,8.07
2023-01-17T17:47:19.273Z,8.20
2023-01-17T17:51:30.303Z,18.35
2023-01-17T17:55:32.738Z,8.85
2023-01-17T17:59:34.830Z,9.60
2023-01-17T18:03:37.227Z,7.75
2023-01-17T18:07:39.326Z,5.05
2023-01-17T18:11:42.878Z,4.85
2023-01-17T18:15:45.017Z,12.07
2023-01-17T18:19:47.333Z,10.75
2023-01-17T18:23:53.008Z,7.93
2023-01-17T18:27:56.409Z,9.57
2023-01-17T18:31:58.573Z,8.60
2023-01-17T18:36:01.732Z,7.30
2023-01-17T18:40:05.207Z,8.27
2023-01-17T18:44:07.770Z,8.38
2023-01-17T18:48:09.925Z,8.38
2023-01-17T18:52:12.063Z,9.65
2023-01-17T18:56:17.960Z,11.48
2023-01-17T19:00:20.578Z,12.07
2023-01-17T19:04:22.812Z,11.32
2023-01-17T19:08:24.903Z,37.72
2023-01-17T19:12:26.939Z,14.18
2023-01-17T19:16:31.595Z,13.75
2023-01-17T19:20:35.023Z,12.48
2023-01-17T19:24:38.308Z,11.98
2023-01-17T19:28:48.957Z,11.02
2023-01-17T19:32:56.079Z,10.65
2023-01-17T19:36:58.171Z,9.90
2023-01-17T19:41:28.489Z,10.77
2023-01-17T19:45:30.844Z,13.43
2023-01-17T19:49:33.991Z,12.55
2023-01-17T19:53:37.245Z,14.20
2023-01-17T19:57:40.563Z,12.00
2023-01-17T20:01:42.884Z,8.27
2023-01-17T20:05:46.157Z,7.47
2023-01-17T20:09:48.273Z,5.88
2023-01-17T20:13:55.831Z,5.53
2023-01-17T20:17:58.319Z,5.55
2023-01-17T20:22:00.779Z,6.38
2023-01-17T20:26:03.505Z,8.02
2023-01-17T20:30:19.312Z,9.10
2023-01-17T20:34:25.603Z,11.95
2023-01-17T20:38:43.678Z,12.60
2023-01-17T20:42:45.785Z,12.15
2023-01-17T20:46:48.194Z,12.05
2023-01-17T20:50:50.354Z,14.10
2023-01-17T20:54:52.621Z,13.30
2023-01-17T20:58:54.975Z,12.63
2023-01-17T21:02:57.059Z,12.60
2023-01-17T21:06:59.248Z,13.43
2023-01-17T21:11:01.486Z,13.13
2023-01-17T21:15:04.441Z,12.60
2023-01-17T21:19:09.138Z,12.68
2023-01-17T21:23:17.972Z,11.98
2023-01-17T21:27:21.595Z,11.05
2023-01-17T21:31:29.086Z,10.85
2023-01-17T21:35:31.682Z,12.85
2023-01-17T21:39:33.737Z,13.27
2023-01-17T21:43:38.279Z,14.25
2023-01-17T21:47:44.427Z,15.82
2023-01-17T21:51:55.323Z,14.00
2023-01-17T21:56:23.801Z,13.82
2023-01-17T22:00:25.862Z,14.57
2023-01-17T22:04:29.454Z,13.18
2023-01-17T22:08:37.974Z,12.20
2023-01-17T22:12:40.049Z,13.15
2023-01-17T22:16:42.143Z,8.75
2023-01-17T22:20:44.286Z,7.22
2023-01-17T22:24:46.879Z,6.82
2023-01-17T22:28:49.023Z,10.45
2023-01-17T22:32:51.159Z,8.05
2023-01-17T22:36:53.588Z,5.90
2023-01-17T22:41:07.819Z,6.32
2023-01-17T22:45:10.545Z,5.30
2023-01-17T22:49:13.944Z,5.00
2023-01-17T22:53:16.060Z,5.25
2023-01-17T22:57:18.345Z,7.65
2023-01-17T23:01:21.340Z,4.47
2023-01-17T23:05:23.511Z,4.25
2023-01-17T23:09:25.800Z,3.85
2023-01-17T23:13:27.875Z,3.88
2023-01-17T23:17:48.747Z,4.05
2023-01-17T23:22:11.979Z,4.47
2023-01-17T23:26:14.020Z,4.82
2023-01-17T23:30:23.527Z,5.22
2023-01-17T23:34:25.727Z,5.50
2023-01-17T23:38:30.806Z,6.97
2023-01-17T23:42:51.632Z,6.68
2023-01-17T23:46:53.736Z,5.65
2023-01-17T23:51:06.917Z,5.80
2023-01-17T23:55:09.379Z,4.70
2023-01-17T23:59:11.548Z,4.65
